createdAt,value
2023-01-27T00:03:37.226Z,0.9
2023-01-27T00:13:36.687Z,0.8
2023-01-27T00:23:36.625Z,0.8
2023-01-27T00:33:36.664Z,0.8
2023-01-27T00:43:37.101Z,0.7
2023-01-27T00:53:36.625Z,0.7
2023-01-27T01:03:36.660Z,0.7
2023-01-27T01:13:36.640Z,0.7
2023-01-27T01:23:37.031Z,0.6
2023-01-27T01:33:36.651Z,0.6
2023-01-27T01:43:37.080Z,0.6
2023-01-27T01:53:36.618Z,0.4
2023-01-27T02:03:36.638Z,0.5
2023-01-27T02:13:37.055Z,0.4
2023-01-27T02:23:36.603Z,0.4
2023-01-27T02:33:36.632Z,0.4
2023-01-27T02:43:36.640Z,0.3
2023-01-27T02:53:36.594Z,0.3
2023-01-27T03:03:36.623Z,0.3
2023-01-27T03:13:36.629Z,0.2
2023-01-27T03:23:36.581Z,0.2
2023-01-27T03:33:36.607Z,0.2
2023-01-27T03:43:36.610Z,0.2
2023-01-27T03:53:36.565Z,0.2
2023-01-27T04:03:36.586Z,0.1
2023-01-27T04:13:36.578Z,0.1
2023-01-27T04:23:36.589Z,0.1
2023-01-27T04:33:36.600Z,0.1
2023-01-27T04:43:37.005Z,0.1
2023-01-27T04:53:36.534Z,0.1
2023-01-27T05:03:37.013Z,0
2023-01-27T05:13:36.571Z,0
2023-01-27T05:23:36.528Z,0.1
2023-01-27T05:33:36.980Z,0.1
2023-01-27T05:43:36.576Z,0
2023-01-27T05:53:36.564Z,-0.1
2023-01-27T06:03:36.560Z,0
2023-01-27T06:13:36.562Z,0
2023-01-27T06:23:36.510Z,-0.1
2023-01-27T06:33:36.562Z,-0.1
2023-01-27T06:43:36.555Z,-0.1
2023-01-27T06:53:36.498Z,-0.2
2023-01-27T07:03:36.584Z,-0.2
2023-01-27T07:13:36.541Z,-0.2
2023-01-27T07:23:36.497Z,-0.1
2023-01-27T07:33:36.521Z,-0.1
2023-01-27T07:43:36.533Z,0
2023-01-27T07:53:36.494Z,0
2023-01-27T08:03:36.579Z,0
2023-01-27T08:13:36.508Z,0
2023-01-27T08:23:36.921Z,0.1
2023-01-27T08:33:36.541Z,0.1
2023-01-27T08:43:36.533Z,0.1
2023-01-27T08:53:36.939Z,0.1
2023-01-27T09:03:36.524Z,0.2
2023-01-27T09:13:36.510Z,0.2
2023-01-27T09:23:36.463Z,0.2
2023-01-27T09:33:36.904Z,0.3
2023-01-27T09:43:36.497Z,0.3
2023-01-27T09:53:36.453Z,0.3
2023-01-27T10:03:36.480Z,0.3
2023-01-27T10:13:36.493Z,0.3
2023-01-27T10:23:36.440Z,0.3
2023-01-27T10:33:36.466Z,0.3
2023-01-27T10:43:36.465Z,0.4
2023-01-27T10:53:36.441Z,0.4
2023-01-27T11:03:36.468Z,0.4
2023-01-27T11:13:36.456Z,0.4
2023-01-27T11:23:36.415Z,0.4
2023-01-27T11:33:36.869Z,0.3
2023-01-27T11:43:36.460Z,0.3
2023-01-27T11:53:36.417Z,0.3
2023-01-27T12:03:36.450Z,0.3
2023-01-27T12:13:36.462Z,0.4
2023-01-27T12:23:36.443Z,0.4
2023-01-27T12:33:36.847Z,0.3
2023-01-27T12:43:36.421Z,0.4
2023-01-27T12:53:36.392Z,0.4
2023-01-27T13:03:36.472Z,0.4
2023-01-27T13:13:36.832Z,0.4
2023-01-27T13:23:36.394Z,0.4
2023-01-27T13:33:36.441Z,0.4
2023-01-27T13:43:36.424Z,0.4
2023-01-27T13:53:36.377Z,0.3
2023-01-27T14:03:36.392Z,0.3
2023-01-27T14:13:36.415Z,0.4
2023-01-27T14:23:36.362Z,0.4
2023-01-27T14:33:36.397Z,0.4
2023-01-27T14:43:36.383Z,0.4
2023-01-27T14:53:36.358Z,0.4
2023-01-27T15:03:36.383Z,0.5
2023-01-27T15:13:40.347Z,0.5
2023-01-27T15:23:36.344Z,0.5
2023-01-27T15:33:36.373Z,0.5
2023-01-27T15:43:36.379Z,0.5
2023-01-27T15:53:36.330Z,0.6
2023-01-27T16:03:36.385Z,0.5
2023-01-27T16:13:36.385Z,0.5
2023-01-27T16:23:36.330Z,0.5
2023-01-27T16:33:36.352Z,0.5
2023-01-27T16:43:36.365Z,0.5
2023-01-27T16:53:36.308Z,0.4
2023-01-27T17:03:36.349Z,0.4
2023-01-27T17:13:36.343Z,0.5
2023-01-27T17:23:36.321Z,0.5
2023-01-27T17:33:36.345Z,0.6
2023-01-27T17:43:36.325Z,0.5
2023-01-27T17:53:36.307Z,0.6
2023-01-27T18:03:36.341Z,0.6
2023-01-27T18:13:36.757Z,0.6
2023-01-27T18:23:36.307Z,0.6
2023-01-27T18:33:36.322Z,0.6
2023-01-27T18:43:36.309Z,0.6
2023-01-27T18:53:36.283Z,0.6
2023-01-27T19:03:36.305Z,0.6
2023-01-27T19:13:36.305Z,0.6
2023-01-27T19:23:36.265Z,0.7
2023-01-27T19:33:36.719Z,0.8
2023-01-27T19:43:36.312Z,0.8
2023-01-27T19:53:36.252Z,0.8
2023-01-27T20:03:36.346Z,0.8
2023-01-27T20:13:36.709Z,0.9
2023-01-27T20:33:36.713Z,1
2023-01-27T20:43:38.156Z,0.9
2023-01-27T20:53:36.241Z,1
2023-01-27T21:03:36.271Z,1
2023-01-27T21:13:36.281Z,1
2023-01-27T21:23:36.233Z,1.1
2023-01-27T21:33:36.270Z,1.1
2023-01-27T21:43:36.248Z,1.1
2023-01-27T21:53:36.633Z,1.1
2023-01-27T22:03:38.375Z,1.1
2023-01-27T22:13:36.249Z,1.1
2023-01-27T22:23:36.217Z,1.1
2023-01-27T22:33:36.219Z,1.1
2023-01-27T22:43:36.220Z,1.1
2023-01-27T22:53:36.195Z,1.1
2023-01-27T23:03:36.224Z,1
2023-01-27T23:13:36.647Z,1
2023-01-27T23:23:36.207Z,1
2023-01-27T23:33:36.219Z,1
2023-01-27T23:43:36.215Z,1
2023-01-27T23:53:36.590Z,1
